sensor_id;sensor_type;location;lat;lon;timestamp;temperature;humidity
25170;DHT22;13129;48.012;10.352;2023-09-30T03:30:51;15.10;99.90
25170;DHT22;13129;48.012;10.352;2023-09-30T03:33:17;15.10;99.90
25170;DHT22;13129;48.012;10.352;2023-09-30T03:35:43;15.10;99.90
25170;DHT22;13129;48.012;10.352;2023-09-30T03:38:10;15.00;99.90
25170;DHT22;13129;48.012;10.352;2023-09-30T03:40:35;15.00;99.90
25170;DHT22;13129;48.012;10.352;2023-09-30T03:43:04;15.00;99.90
25170;DHT22;13129;48.012;10.352;2023-09-30T03:45:31;15.00;99.90
25170;DHT22;13129;48.012;10.352;2023-09-30T03:47:58;15.00;99.90
25170;DHT22;13129;48.012;10.352;2023-09-30T03:50:24;15.10;99.90
25170;DHT22;13129;48.012;10.352;2023-09-30T03:52:50;15.10;99.90
25170;DHT22;13129;48.012;10.352;2023-09-30T03:55:18;15.20;99.90
25170;DHT22;13129;48.012;10.352;2023-09-30T03:57:47;15.00;99.90
25170;DHT22;13129;48.012;10.352;2023-09-30T04:00:13;14.90;99.90
25170;DHT22;13129;48.012;10.352;2023-09-30T04:02:44;14.90;99.90
25170;DHT22;13129;48.012;10.352;2023-09-30T04:05:13;14.90;99.90
25170;DHT22;13129;48.012;10.352;2023-09-30T04:07:40;14.70;99.90
25170;DHT22;13129;48.012;10.352;2023-09-30T04:10:08;14.70;99.90
25170;DHT22;13129;48.012;10.352;2023-09-30T04:12:35;14.70;99.90
25170;DHT22;13129;48.012;10.352;2023-09-30T04:15:01;14.60;99.90
25170;DHT22;13129;48.012;10.352;2023-09-30T04:17:26;14.60;99.90
25170;DHT22;13129;48.012;10.352;2023-09-30T04:19:53;14.50;99.90
25170;DHT22;13129;48.012;10.352;2023-09-30T04:22:18;14.40;99.90
25170;DHT22;13129;48.012;10.352;2023-09-30T04:24:45;14.40;99.90
25170;DHT22;13129;48.012;10.352;2023-09-30T04:27:11;14.40;99.90
25170;DHT22;13129;48.012;10.352;2023-09-30T04:29:36;14.20;99.90
25170;DHT22;13129;48.012;10.352;2023-09-30T04:32:03;14.10;99.90
25170;DHT22;13129;48.012;10.352;2023-09-30T04:34:31;14.10;99.90
25170;DHT22;13129;48.012;10.352;2023-09-30T04:36:57;14.10;99.90
25170;DHT22;13129;48.012;10.352;2023-09-30T04:39:22;14.10;99.90
25170;DHT22;13129;48.012;10.352;2023-09-30T04:41:48;14.00;99.90
25170;DHT22;13129;48.012;10.352;2023-09-30T04:44:14;13.90;99.90
25170;DHT22;13129;48.012;10.352;2023-09-30T04:46:39;13.80;99.90
25170;DHT22;13129;48.012;10.352;2023-09-30T04:49:07;13.80;99.90
25170;DHT22;13129;48.012;10.352;2023-09-30T04:51:33;13.70;99.90
25170;DHT22;13129;48.012;10.352;2023-09-30T04:53:59;13.60;99.90
25170;DHT22;13129;48.012;10.352;2023-09-30T04:56:25;13.50;99.90
25170;DHT22;13129;48.012;10.352;2023-09-30T04:58:51;13.50;99.90
25170;DHT22;13129;48.012;10.352;2023-09-30T05:01:16;13.40;99.90
25170;DHT22;13129;48.012;10.352;2023-09-30T05:03:44;13.40;99.90
25170;DHT22;13129;48.012;10.352;2023-09-30T05:06:10;13.30;99.90
25170;DHT22;13129;48.012;10.352;2023-09-30T05:08:35;13.30;99.90
25170;DHT22;13129;48.012;10.352;2023-09-30T05:11:01;13.20;99.90
25170;DHT22;13129;48.012;10.352;2023-09-30T05:13:26;13.20;99.90
25170;DHT22;13129;48.012;10.352;2023-09-30T05:15:52;13.20;99.90
25170;DHT22;13129;48.012;10.352;2023-09-30T05:18:18;13.10;99.90
25170;DHT22;13129;48.012;10.352;2023-09-30T05:20:44;13.10;99.90
25170;DHT22;13129;48.012;10.352;2023-09-30T05:23:10;13.20;99.90
25170;DHT22;13129;48.012;10.352;2023-09-30T05:25:39;13.20;99.90
25170;DHT22;13129;48.012;10.352;2023-09-30T05:28:05;13.20;99.90
25170;DHT22;13129;48.012;10.352;2023-09-30T05:30:32;13.10;99.90
25170;DHT22;13129;48.012;10.352;2023-09-30T05:32:59;13.10;99.90
25170;DHT22;13129;48.012;10.352;2023-09-30T05:35:25;13.10;99.90
25170;DHT22;13129;48.012;10.352;2023-09-30T05:37:51;13.10;99.90
25170;DHT22;13129;48.012;10.352;2023-09-30T05:40:20;13.10;99.90
25170;DHT22;13129;48.012;10.352;2023-09-30T05:42:55;13.20;99.90
25170;DHT22;13129;48.012;10.352;2023-09-30T05:45:23;13.30;99.90
25170;DHT22;13129;48.012;10.352;2023-09-30T05:47:49;13.40;99.90
25170;DHT22;13129;48.012;10.352;2023-09-30T05:50:18;13.50;99.90
25170;DHT22;13129;48.012;10.352;2023-09-30T05:52:49;13.60;99.90
25170;DHT22;13129;48.012;10.352;2023-09-30T05:55:16;13.80;99.90
25170;DHT22;13129;48.012;10.352;2023-09-30T05:57:45;13.90;99.90
25170;DHT22;13129;48.012;10.352;2023-09-30T06:00:12;14.10;99.90
25170;DHT22;13129;48.012;10.352;2023-09-30T06:02:53;14.10;99.90
25170;DHT22;13129;48.012;10.352;2023-09-30T06:05:19;14.30;99.90
25170;DHT22;13129;48.012;10.352;2023-09-30T06:07:46;14.40;99.90
25170;DHT22;13129;48.012;10.352;2023-09-30T06:10:12;14.60;99.90
25170;DHT22;13129;48.012;10.352;2023-09-30T06:12:43;14.70;99.90
25170;DHT22;13129;48.012;10.352;2023-09-30T06:15:09;14.90;99.90
25170;DHT22;13129;48.012;10.352;2023-09-30T06:17:35;15.10;99.90
25170;DHT22;13129;48.012;10.352;2023-09-30T06:20:04;15.30;99.90
25170;DHT22;13129;48.012;10.352;2023-09-30T06:22:34;15.60;99.90
25170;DHT22;13129;48.012;10.352;2023-09-30T06:25:00;15.70;99.90
25170;DHT22;13129;48.012;10.352;2023-09-30T06:27:25;15.90;99.90
25170;DHT22;13129;48.012;10.352;2023-09-30T06:29:51;16.10;99.90
25170;DHT22;13129;48.012;10.352;2023-09-30T06:32:17;16.30;99.90
25170;DHT22;13129;48.012;10.352;2023-09-30T06:34:42;16.50;99.90
25170;DHT22;13129;48.012;10.352;2023-09-30T06:37:08;16.50;99.90
25170;DHT22;13129;48.012;10.352;2023-09-30T06:39:34;16.40;99.90
25170;DHT22;13129;48.012;10.352;2023-09-30T06:42:00;16.40;99.90
25170;DHT22;13129;48.012;10.352;2023-09-30T06:44:25;16.40;99.90
25170;DHT22;13129;48.012;10.352;2023-09-30T06:46:51;16.50;99.90
25170;DHT22;13129;48.012;10.352;2023-09-30T06:49:17;16.50;99.90
25170;DHT22;13129;48.012;10.352;2023-09-30T06:51:42;16.40;99.90
25170;DHT22;13129;48.012;10.352;2023-09-30T06:54:08;16.40;99.90
25170;DHT22;13129;48.012;10.352;2023-09-30T06:56:34;16.40;99.90
25170;DHT22;13129;48.012;10.352;2023-09-30T06:59:01;16.60;99.90
25170;DHT22;13129;48.012;10.352;2023-09-30T07:01:26;16.80;99.90
25170;DHT22;13129;48.012;10.352;2023-09-30T07:03:52;17.10;99.90
25170;DHT22;13129;48.012;10.352;2023-09-30T07:06:27;17.20;99.90
25170;DHT22;13129;48.012;10.352;2023-09-30T07:08:52;17.40;99.90
25170;DHT22;13129;48.012;10.352;2023-09-30T07:11:28;17.70;99.90
25170;DHT22;13129;48.012;10.352;2023-09-30T07:13:54;17.90;99.90
25170;DHT22;13129;48.012;10.352;2023-09-30T07:16:20;17.70;99.90
25170;DHT22;13129;48.012;10.352;2023-09-30T07:18:45;17.60;99.90
25170;DHT22;13129;48.012;10.352;2023-09-30T07:21:12;17.40;99.90
25170;DHT22;13129;48.012;10.352;2023-09-30T07:23:38;17.40;99.90
25170;DHT22;13129;48.012;10.352;2023-09-30T07:26:03;17.20;99.90
25170;DHT22;13129;48.012;10.352;2023-09-30T07:28:29;17.30;99.90
25170;DHT22;13129;48.012;10.352;2023-09-30T07:30:55;17.50;99.90
25170;DHT22;13129;48.012;10.352;2023-09-30T07:33:21;17.70;99.90
25170;DHT22;13129;48.012;10.352;2023-09-30T07:35:47;18.00;99.90
25170;DHT22;13129;48.012;10.352;2023-09-30T07:38:12;18.20;99.90
25170;DHT22;13129;48.012;10.352;2023-09-30T07:40:38;18.60;99.90
25170;DHT22;13129;48.012;10.352;2023-09-30T07:43:04;19.10;99.90
25170;DHT22;13129;48.012;10.352;2023-09-30T07:45:29;19.80;99.90
25170;DHT22;13129;48.012;10.352;2023-09-30T07:47:55;20.50;99.90
25170;DHT22;13129;48.012;10.352;2023-09-30T07:50:21;20.90;99.90
25170;DHT22;13129;48.012;10.352;2023-09-30T07:52:46;21.10;99.90
25170;DHT22;13129;48.012;10.352;2023-09-30T07:55:12;21.00;99.90
25170;DHT22;13129;48.012;10.352;2023-09-30T07:57:41;20.70;99.90
25170;DHT22;13129;48.012;10.352;2023-09-30T08:00:08;20.40;99.90
25170;DHT22;13129;48.012;10.352;2023-09-30T08:02:40;20.00;99.90
25170;DHT22;13129;48.012;10.352;2023-09-30T08:05:06;19.50;99.90
25170;DHT22;13129;48.012;10.352;2023-09-30T08:07:31;19.00;99.90
25170;DHT22;13129;48.012;10.352;2023-09-30T08:09:57;18.60;99.90
25170;DHT22;13129;48.012;10.352;2023-09-30T08:12:24;18.30;99.90
25170;DHT22;13129;48.012;10.352;2023-09-30T08:14:49;18.20;99.90
25170;DHT22;13129;48.012;10.352;2023-09-30T08:17:17;18.40;99.90
25170;DHT22;13129;48.012;10.352;2023-09-30T08:19:43;18.80;99.90
25170;DHT22;13129;48.012;10.352;2023-09-30T08:22:09;19.50;99.90
25170;DHT22;13129;48.012;10.352;2023-09-30T08:24:35;20.10;99.90
25170;DHT22;13129;48.012;10.352;2023-09-30T08:27:01;20.60;99.90
25170;DHT22;13129;48.012;10.352;2023-09-30T08:29:27;20.80;99.90
25170;DHT22;13129;48.012;10.352;2023-09-30T08:31:52;21.00;99.90
25170;DHT22;13129;48.012;10.352;2023-09-30T08:34:18;22.00;99.90
25170;DHT22;13129;48.012;10.352;2023-09-30T08:36:46;22.80;99.90
25170;DHT22;13129;48.012;10.352;2023-09-30T08:39:12;23.20;99.90
25170;DHT22;13129;48.012;10.352;2023-09-30T08:41:38;23.10;99.90
25170;DHT22;13129;48.012;10.352;2023-09-30T08:44:04;23.20;99.90
25170;DHT22;13129;48.012;10.352;2023-09-30T08:46:34;23.40;99.90
25170;DHT22;13129;48.012;10.352;2023-09-30T08:49:01;23.80;99.90
25170;DHT22;13129;48.012;10.352;2023-09-30T08:51:29;23.70;99.90
25170;DHT22;13129;48.012;10.352;2023-09-30T08:53:56;23.50;99.90
25170;DHT22;13129;48.012;10.352;2023-09-30T08:56:25;23.40;99.90
25170;DHT22;13129;48.012;10.352;2023-09-30T08:58:53;23.20;99.90
25170;DHT22;13129;48.012;10.352;2023-09-30T09:01:20;23.20;99.90
25170;DHT22;13129;48.012;10.352;2023-09-30T09:03:45;23.30;99.90
25170;DHT22;13129;48.012;10.352;2023-09-30T09:06:18;23.40;99.90
25170;DHT22;13129;48.012;10.352;2023-09-30T09:08:44;23.50;99.90
25170;DHT22;13129;48.012;10.352;2023-09-30T09:11:10;23.80;99.90
25170;DHT22;13129;48.012;10.352;2023-09-30T09:13:50;23.80;99.90
25170;DHT22;13129;48.012;10.352;2023-09-30T09:16:18;23.60;99.90
25170;DHT22;13129;48.012;10.352;2023-09-30T09:18:44;22.90;99.90
25170;DHT22;13129;48.012;10.352;2023-09-30T09:21:20;22.20;99.90
25170;DHT22;13129;48.012;10.352;2023-09-30T09:23:50;21.50;99.90
25170;DHT22;13129;48.012;10.352;2023-09-30T09:26:30;21.10;99.90
25170;DHT22;13129;48.012;10.352;2023-09-30T09:29:04;20.90;99.90
25170;DHT22;13129;48.012;10.352;2023-09-30T09:31:34;20.70;99.90
25170;DHT22;13129;48.012;10.352;2023-09-30T09:34:01;20.80;99.90
25170;DHT22;13129;48.012;10.352;2023-09-30T09:36:44;21.00;99.90
25170;DHT22;13129;48.012;10.352;2023-09-30T09:39:10;21.80;99.90
25170;DHT22;13129;48.012;10.352;2023-09-30T09:41:53;23.10;99.90
25170;DHT22;13129;48.012;10.352;2023-09-30T09:44:21;24.80;99.90
25170;DHT22;13129;48.012;10.352;2023-09-30T09:46:47;26.30;98.10
25170;DHT22;13129;48.012;10.352;2023-09-30T09:49:16;27.30;95.00
25170;DHT22;13129;48.012;10.352;2023-09-30T09:51:43;28.20;92.50
25170;DHT22;13129;48.012;10.352;2023-09-30T09:54:11;28.60;90.50
25170;DHT22;13129;48.012;10.352;2023-09-30T09:56:38;29.10;88.00
25170;DHT22;13129;48.012;10.352;2023-09-30T09:59:05;29.10;82.60
25170;DHT22;13129;48.012;10.352;2023-09-30T10:01:33;28.20;81.50
25170;DHT22;13129;48.012;10.352;2023-09-30T10:04:00;27.00;84.30
25170;DHT22;13129;48.012;10.352;2023-09-30T10:06:27;26.00;87.30
25170;DHT22;13129;48.012;10.352;2023-09-30T10:08:53;25.00;90.00
25170;DHT22;13129;48.012;10.352;2023-09-30T10:11:21;24.20;91.20
25170;DHT22;13129;48.012;10.352;2023-09-30T10:13:55;23.60;92.00
25170;DHT22;13129;48.012;10.352;2023-09-30T10:19:19;23.80;93.80
25170;DHT22;13129;48.012;10.352;2023-09-30T10:24:46;27.20;89.40
25170;DHT22;13129;48.012;10.352;2023-09-30T10:35:20;30.30;77.70
25170;DHT22;13129;48.012;10.352;2023-09-30T10:37:47;30.60;76.30
25170;DHT22;13129;48.012;10.352;2023-09-30T10:40:29;30.90;75.30
25170;DHT22;13129;48.012;10.352;2023-09-30T10:42:56;30.90;71.00
25170;DHT22;13129;48.012;10.352;2023-09-30T10:45:43;30.60;70.70
25170;DHT22;13129;48.012;10.352;2023-09-30T10:50:55;29.10;72.20
25170;DHT22;13129;48.012;10.352;2023-09-30T10:53:22;27.90;75.40
25170;DHT22;13129;48.012;10.352;2023-09-30T10:55:56;26.80;75.90
25170;DHT22;13129;48.012;10.352;2023-09-30T10:58:39;26.10;77.00
25170;DHT22;13129;48.012;10.352;2023-09-30T11:01:04;25.50;79.40
25170;DHT22;13129;48.012;10.352;2023-09-30T11:03:30;25.20;80.90
25170;DHT22;13129;48.012;10.352;2023-09-30T11:05:56;25.00;83.10
25170;DHT22;13129;48.012;10.352;2023-09-30T11:08:22;25.20;82.90
25170;DHT22;13129;48.012;10.352;2023-09-30T11:10:52;25.10;83.00
25170;DHT22;13129;48.012;10.352;2023-09-30T11:13:19;24.80;83.10
25170;DHT22;13129;48.012;10.352;2023-09-30T11:15:45;24.70;83.70
25170;DHT22;13129;48.012;10.352;2023-09-30T11:18:17;24.50;84.90
25170;DHT22;13129;48.012;10.352;2023-09-30T11:20:44;24.30;87.20
25170;DHT22;13129;48.012;10.352;2023-09-30T11:23:13;24.10;88.00
25170;DHT22;13129;48.012;10.352;2023-09-30T11:25:40;24.00;87.90
25170;DHT22;13129;48.012;10.352;2023-09-30T11:28:18;23.90;88.00
25170;DHT22;13129;48.012;10.352;2023-09-30T11:31:01;24.00;87.20
25170;DHT22;13129;48.012;10.352;2023-09-30T11:33:33;23.80;85.40
25170;DHT22;13129;48.012;10.352;2023-09-30T11:36:12;23.60;87.00
25170;DHT22;13129;48.012;10.352;2023-09-30T11:38:44;23.50;88.50
25170;DHT22;13129;48.012;10.352;2023-09-30T11:41:10;23.40;88.70
25170;DHT22;13129;48.012;10.352;2023-09-30T11:43:36;23.40;88.70
25170;DHT22;13129;48.012;10.352;2023-09-30T11:46:08;23.50;87.40
25170;DHT22;13129;48.012;10.352;2023-09-30T11:48:35;23.50;87.00
25170;DHT22;13129;48.012;10.352;2023-09-30T11:51:01;23.50;87.20
25170;DHT22;13129;48.012;10.352;2023-09-30T11:53:29;23.60;88.60
25170;DHT22;13129;48.012;10.352;2023-09-30T11:55:57;23.40;88.20
25170;DHT22;13129;48.012;10.352;2023-09-30T11:58:25;23.30;88.40
25170;DHT22;13129;48.012;10.352;2023-09-30T12:00:57;23.30;88.10
25170;DHT22;13129;48.012;10.352;2023-09-30T12:03:23;23.20;88.50
25170;DHT22;13129;48.012;10.352;2023-09-30T12:05:49;23.10;88.40
25170;DHT22;13129;48.012;10.352;2023-09-30T12:08:15;23.00;89.00
25170;DHT22;13129;48.012;10.352;2023-09-30T12:10:40;23.00;89.70
25170;DHT22;13129;48.012;10.352;2023-09-30T12:13:06;23.00;89.20
25170;DHT22;13129;48.012;10.352;2023-09-30T12:15:31;22.90;88.80
25170;DHT22;13129;48.012;10.352;2023-09-30T12:17:57;22.90;88.60
25170;DHT22;13129;48.012;10.352;2023-09-30T12:20:23;22.90;88.40
25170;DHT22;13129;48.012;10.352;2023-09-30T12:22:49;23.00;88.20
25170;DHT22;13129;48.012;10.352;2023-09-30T12:25:15;22.90;88.90
25170;DHT22;13129;48.012;10.352;2023-09-30T12:27:42;22.90;89.30
25170;DHT22;13129;48.012;10.352;2023-09-30T12:30:07;22.80;89.90
25170;DHT22;13129;48.012;10.352;2023-09-30T12:32:33;22.80;90.00
25170;DHT22;13129;48.012;10.352;2023-09-30T12:34:59;22.70;90.30
25170;DHT22;13129;48.012;10.352;2023-09-30T12:37:24;22.60;90.70
25170;DHT22;13129;48.012;10.352;2023-09-30T12:39:50;22.50;90.20
25170;DHT22;13129;48.012;10.352;2023-09-30T12:42:16;22.50;90.10
25170;DHT22;13129;48.012;10.352;2023-09-30T12:44:42;22.40;90.00
25170;DHT22;13129;48.012;10.352;2023-09-30T12:47:07;22.30;89.70
25170;DHT22;13129;48.012;10.352;2023-09-30T12:49:33;22.30;89.00
25170;DHT22;13129;48.012;10.352;2023-09-30T12:51:58;22.20;88.20
25170;DHT22;13129;48.012;10.352;2023-09-30T12:54:25;22.10;88.00
25170;DHT22;13129;48.012;10.352;2023-09-30T12:56:51;22.10;89.20
25170;DHT22;13129;48.012;10.352;2023-09-30T12:59:17;21.90;90.20
25170;DHT22;13129;48.012;10.352;2023-09-30T13:01:49;21.90;90.90
25170;DHT22;13129;48.012;10.352;2023-09-30T13:04:15;21.80;91.40
25170;DHT22;13129;48.012;10.352;2023-09-30T13:06:40;21.90;91.70
25170;DHT22;13129;48.012;10.352;2023-09-30T13:09:06;22.10;91.80
25170;DHT22;13129;48.012;10.352;2023-09-30T13:11:34;22.10;91.70
25170;DHT22;13129;48.012;10.352;2023-09-30T13:13:59;22.20;91.90
25170;DHT22;13129;48.012;10.352;2023-09-30T13:16:25;22.20;92.10
25170;DHT22;13129;48.012;10.352;2023-09-30T13:18:51;22.20;92.10
25170;DHT22;13129;48.012;10.352;2023-09-30T13:21:19;22.10;91.40
25170;DHT22;13129;48.012;10.352;2023-09-30T13:23:45;22.00;91.60
25170;DHT22;13129;48.012;10.352;2023-09-30T13:26:11;21.90;91.50
25170;DHT22;13129;48.012;10.352;2023-09-30T13:28:37;22.00;91.40
25170;DHT22;13129;48.012;10.352;2023-09-30T13:31:02;22.00;91.00
25170;DHT22;13129;48.012;10.352;2023-09-30T13:33:28;21.90;91.80
25170;DHT22;13129;48.012;10.352;2023-09-30T13:35:53;21.60;91.20
25170;DHT22;13129;48.012;10.352;2023-09-30T13:38:21;21.40;91.20
25170;DHT22;13129;48.012;10.352;2023-09-30T13:40:46;21.40;91.70
25170;DHT22;13129;48.012;10.352;2023-09-30T13:43:12;21.60;91.70
25170;DHT22;13129;48.012;10.352;2023-09-30T13:45:37;21.70;91.90
25170;DHT22;13129;48.012;10.352;2023-09-30T13:48:03;21.70;92.00
25170;DHT22;13129;48.012;10.352;2023-09-30T13:50:30;21.70;91.70
25170;DHT22;13129;48.012;10.352;2023-09-30T13:52:55;21.50;91.70
25170;DHT22;13129;48.012;10.352;2023-09-30T13:55:21;21.40;92.30
25170;DHT22;13129;48.012;10.352;2023-09-30T13:57:47;21.20;92.60
25170;DHT22;13129;48.012;10.352;2023-09-30T14:00:14;21.10;92.20
25170;DHT22;13129;48.012;10.352;2023-09-30T14:02:41;20.90;92.50
25170;DHT22;13129;48.012;10.352;2023-09-30T14:05:08;20.80;93.00
25170;DHT22;13129;48.012;10.352;2023-09-30T14:07:35;20.70;93.00
25170;DHT22;13129;48.012;10.352;2023-09-30T14:10:00;20.50;93.00
25170;DHT22;13129;48.012;10.352;2023-09-30T14:12:26;20.30;93.20
25170;DHT22;13129;48.012;10.352;2023-09-30T14:14:52;20.30;93.20
25170;DHT22;13129;48.012;10.352;2023-09-30T14:17:18;20.10;93.40
25170;DHT22;13129;48.012;10.352;2023-09-30T14:19:44;20.00;93.40
25170;DHT22;13129;48.012;10.352;2023-09-30T14:22:09;20.00;93.60
25170;DHT22;13129;48.012;10.352;2023-09-30T14:24:35;19.90;94.20
25170;DHT22;13129;48.012;10.352;2023-09-30T14:27:04;19.80;94.90
25170;DHT22;13129;48.012;10.352;2023-09-30T14:29:31;19.90;95.20
25170;DHT22;13129;48.012;10.352;2023-09-30T14:31:57;19.80;94.40
25170;DHT22;13129;48.012;10.352;2023-09-30T14:34:23;19.80;94.50
25170;DHT22;13129;48.012;10.352;2023-09-30T14:36:49;19.70;94.70
25170;DHT22;13129;48.012;10.352;2023-09-30T14:39:16;19.60;94.60
25170;DHT22;13129;48.012;10.352;2023-09-30T14:41:43;19.60;94.70
25170;DHT22;13129;48.012;10.352;2023-09-30T14:44:09;19.50;94.80
25170;DHT22;13129;48.012;10.352;2023-09-30T14:46:37;19.40;94.80
25170;DHT22;13129;48.012;10.352;2023-09-30T14:49:03;19.40;95.00
25170;DHT22;13129;48.012;10.352;2023-09-30T14:51:29;19.20;95.10
25170;DHT22;13129;48.012;10.352;2023-09-30T14:53:54;19.10;95.10
25170;DHT22;13129;48.012;10.352;2023-09-30T14:56:20;19.00;95.10
25170;DHT22;13129;48.012;10.352;2023-09-30T14:58:46;19.00;95.10
25170;DHT22;13129;48.012;10.352;2023-09-30T15:01:12;18.90;95.30
25170;DHT22;13129;48.012;10.352;2023-09-30T15:03:40;18.90;95.60
25170;DHT22;13129;48.012;10.352;2023-09-30T15:06:06;18.80;95.50
25170;DHT22;13129;48.012;10.352;2023-09-30T15:08:33;18.80;95.50
25170;DHT22;13129;48.012;10.352;2023-09-30T15:11:02;18.70;95.70
25170;DHT22;13129;48.012;10.352;2023-09-30T15:13:28;18.80;95.90
25170;DHT22;13129;48.012;10.352;2023-09-30T15:15:54;18.70;96.00
25170;DHT22;13129;48.012;10.352;2023-09-30T15:18:20;18.70;96.10
25170;DHT22;13129;48.012;10.352;2023-09-30T15:20:49;18.70;96.30
25170;DHT22;13129;48.012;10.352;2023-09-30T15:23:14;18.70;96.40
25170;DHT22;13129;48.012;10.352;2023-09-30T15:25:41;18.70;96.30
25170;DHT22;13129;48.012;10.352;2023-09-30T15:28:08;18.80;96.50
25170;DHT22;13129;48.012;10.352;2023-09-30T15:30:34;18.80;96.50
25170;DHT22;13129;48.012;10.352;2023-09-30T15:32:59;18.70;96.60
25170;DHT22;13129;48.012;10.352;2023-09-30T15:35:27;18.70;96.70
25170;DHT22;13129;48.012;10.352;2023-09-30T15:37:52;18.70;96.80
25170;DHT22;13129;48.012;10.352;2023-09-30T15:40:18;18.70;96.90
25170;DHT22;13129;48.012;10.352;2023-09-30T15:42:44;18.70;97.00
25170;DHT22;13129;48.012;10.352;2023-09-30T15:45:11;18.60;97.00
25170;DHT22;13129;48.012;10.352;2023-09-30T15:47:38;18.50;97.10
25170;DHT22;13129;48.012;10.352;2023-09-30T15:50:03;18.40;97.30
25170;DHT22;13129;48.012;10.352;2023-09-30T15:52:29;18.30;98.10
25170;DHT22;13129;48.012;10.352;2023-09-30T15:54:55;18.30;98.10
25170;DHT22;13129;48.012;10.352;2023-09-30T15:57:22;18.30;98.30
25170;DHT22;13129;48.012;10.352;2023-09-30T15:59:48;18.20;98.50
25170;DHT22;13129;48.012;10.352;2023-09-30T16:02:17;18.10;98.80
25170;DHT22;13129;48.012;10.352;2023-09-30T16:04:43;18.00;99.20
25170;DHT22;13129;48.012;10.352;2023-09-30T16:07:09;18.00;99.70
25170;DHT22;13129;48.012;10.352;2023-09-30T16:09:37;18.00;99.90
25170;DHT22;13129;48.012;10.352;2023-09-30T16:12:03;17.90;99.90
25170;DHT22;13129;48.012;10.352;2023-09-30T16:14:30;17.90;99.90
25170;DHT22;13129;48.012;10.352;2023-09-30T16:16:57;17.80;99.90
25170;DHT22;13129;48.012;10.352;2023-09-30T16:19:25;17.80;99.90
25170;DHT22;13129;48.012;10.352;2023-09-30T16:21:51;17.70;99.90
25170;DHT22;13129;48.012;10.352;2023-09-30T16:24:16;17.60;99.90
25170;DHT22;13129;48.012;10.352;2023-09-30T16:26:42;17.50;99.90
25170;DHT22;13129;48.012;10.352;2023-09-30T16:29:08;17.40;99.90
25170;DHT22;13129;48.012;10.352;2023-09-30T16:31:34;17.30;99.90
25170;DHT22;13129;48.012;10.352;2023-09-30T16:33:59;17.20;99.90
25170;DHT22;13129;48.012;10.352;2023-09-30T16:36:25;17.20;99.90
25170;DHT22;13129;48.012;10.352;2023-09-30T16:38:51;17.10;99.90
25170;DHT22;13129;48.012;10.352;2023-09-30T16:41:16;17.00;99.90
25170;DHT22;13129;48.012;10.352;2023-09-30T16:43:42;16.90;99.90
25170;DHT22;13129;48.012;10.352;2023-09-30T16:46:07;16.80;99.90
25170;DHT22;13129;48.012;10.352;2023-09-30T16:48:33;16.70;99.90
25170;DHT22;13129;48.012;10.352;2023-09-30T16:50:58;16.50;99.90
25170;DHT22;13129;48.012;10.352;2023-09-30T16:53:25;16.40;99.90
25170;DHT22;13129;48.012;10.352;2023-09-30T16:55:51;16.30;99.90
25170;DHT22;13129;48.012;10.352;2023-09-30T16:58:18;16.20;99.90
25170;DHT22;13129;48.012;10.352;2023-09-30T17:00:43;16.10;99.90
25170;DHT22;13129;48.012;10.352;2023-09-30T17:03:09;16.10;99.90
25170;DHT22;13129;48.012;10.352;2023-09-30T17:05:36;16.00;99.90
25170;DHT22;13129;48.012;10.352;2023-09-30T17:08:02;15.90;99.90
25170;DHT22;13129;48.012;10.352;2023-09-30T17:10:28;15.80;99.90
25170;DHT22;13129;48.012;10.352;2023-09-30T17:12:54;15.70;99.90
25170;DHT22;13129;48.012;10.352;2023-09-30T17:15:19;15.60;99.90
25170;DHT22;13129;48.012;10.352;2023-09-30T17:17:45;15.50;99.90
25170;DHT22;13129;48.012;10.352;2023-09-30T17:20:11;15.50;99.90
25170;DHT22;13129;48.012;10.352;2023-09-30T17:22:39;15.40;99.90
25170;DHT22;13129;48.012;10.352;2023-09-30T17:25:04;15.30;99.90
25170;DHT22;13129;48.012;10.352;2023-09-30T17:27:30;15.20;99.90
25170;DHT22;13129;48.012;10.352;2023-09-30T17:29:56;15.10;99.90
25170;DHT22;13129;48.012;10.352;2023-09-30T17:32:21;15.00;99.90
25170;DHT22;13129;48.012;10.352;2023-09-30T17:34:48;14.90;99.90
25170;DHT22;13129;48.012;10.352;2023-09-30T17:37:13;14.90;99.90
25170;DHT22;13129;48.012;10.352;2023-09-30T17:39:43;14.90;99.90
25170;DHT22;13129;48.012;10.352;2023-09-30T17:42:14;14.70;99.90
25170;DHT22;13129;48.012;10.352;2023-09-30T17:44:41;14.70;99.90
25170;DHT22;13129;48.012;10.352;2023-09-30T17:47:06;14.50;99.90
25170;DHT22;13129;48.012;10.352;2023-09-30T17:49:32;14.30;99.90
25170;DHT22;13129;48.012;10.352;2023-09-30T17:51:57;14.20;99.90
25170;DHT22;13129;48.012;10.352;2023-09-30T17:54:24;14.10;99.90
25170;DHT22;13129;48.012;10.352;2023-09-30T17:56:49;14.10;99.90
25170;DHT22;13129;48.012;10.352;2023-09-30T17:59:16;14.00;99.90
25170;DHT22;13129;48.012;10.352;2023-09-30T18:01:42;14.00;99.90
25170;DHT22;13129;48.012;10.352;2023-09-30T18:04:09;14.00;99.90
25170;DHT22;13129;48.012;10.352;2023-09-30T18:06:35;13.90;99.90
25170;DHT22;13129;48.012;10.352;2023-09-30T18:09:01;13.80;99.90
25170;DHT22;13129;48.012;10.352;2023-09-30T18:11:27;14.00;99.90
